Terminal Aerodrome Forecast
Issued by NWS Buffalo, NY

Home | Current Version | Previous Version | Text Only | Print | Product List | Glossary On
Versions: 1 2 3 4 5 6 7 8 9 10 11 12 13 14 15 16 17 18 19 20 21 22 23 24 25 26 27 28 29 30 31 32 33 34 35 36 37 38 39 40 41 42 43 44 45 46 47 48 49 50
000
FTUS41 KBUF 200536
TAFART
TAF
KART 200536Z 2006/2106 07004KT P6SM SCT050 SCT100 OVC220
     FM200900 06004KT P6SM BKN025
     FM201300 04004KT 6SM -RA SCT007 BKN015
      TEMPO 2013/2015 2SM +RA BR BKN007
     FM201500 02008KT 3SM +RA BR OVC007
     FM202200 03012G18KT 6SM -SHRA BR OVC007=

USA.gov is the U.S. government's official web portal to all federal, state and local government web resources and services.